createdAt,value
2023-03-19T00:00:25.773Z,7.05
2023-03-19T00:03:29.049Z,7.36
2023-03-19T00:06:33.739Z,7.21
2023-03-19T00:09:36.833Z,6.72
2023-03-19T00:12:44.031Z,6.86
2023-03-19T00:15:47.723Z,6.68
2023-03-19T00:18:51.078Z,6.63
2023-03-19T00:21:56.195Z,6.59
2023-03-19T00:24:59.316Z,6.61
2023-03-19T00:28:02.595Z,6.43
2023-03-19T00:31:11.554Z,6.46
2023-03-19T00:34:18.231Z,6.58
2023-03-19T00:37:23.388Z,6.37
2023-03-19T00:40:27.306Z,6.35
2023-03-19T00:43:30.540Z,6.24
2023-03-19T00:46:34.023Z,6.07
2023-03-19T00:49:37.987Z,6.11
2023-03-19T00:52:42.810Z,6.22
2023-03-19T00:55:46.208Z,6.12
2023-03-19T00:58:49.432Z,6.54
2023-03-19T01:01:52.915Z,6.31
2023-03-19T01:04:56.130Z,6.11
2023-03-19T01:08:00.649Z,5.91
2023-03-19T01:11:09.452Z,6.15
2023-03-19T01:14:12.788Z,6.43
2023-03-19T01:17:15.953Z,6.34
2023-03-19T01:20:19.129Z,6.24
2023-03-19T01:23:23.744Z,6.28
2023-03-19T01:26:27.316Z,6.31
2023-03-19T01:29:36.278Z,6.27
2023-03-19T01:32:47.497Z,6.38
2023-03-19T01:36:16.913Z,6.54
2023-03-19T01:39:36.475Z,6.14
2023-03-19T01:42:55.340Z,6.12
2023-03-19T01:46:28.180Z,6.12
2023-03-19T01:50:24.867Z,6.18
2023-03-19T01:53:42.534Z,6.14
2023-03-19T01:57:01.421Z,6.02
2023-03-19T02:00:27.585Z,6.14
2023-03-19T02:03:31.280Z,6.10
2023-03-19T02:06:47.981Z,6.10
2023-03-19T02:09:51.635Z,6.12
2023-03-19T02:12:57.082Z,6.14
2023-03-19T02:16:01.235Z,6.27
2023-03-19T02:19:05.864Z,5.94
2023-03-19T02:22:12.208Z,6.04
2023-03-19T02:25:20.360Z,5.96
2023-03-19T02:28:25.537Z,5.72
2023-03-19T02:31:30.286Z,5.54
2023-03-19T02:34:40.115Z,5.52
2023-03-19T02:37:43.456Z,5.45
2023-03-19T02:40:52.588Z,5.57
2023-03-19T02:43:58.225Z,5.44
2023-03-19T02:47:01.549Z,5.70
2023-03-19T02:50:05.570Z,5.56
2023-03-19T02:53:09.928Z,5.50
2023-03-19T02:56:13.192Z,5.73
2023-03-19T02:59:17.931Z,5.88
2023-03-19T03:02:21.523Z,5.99
2023-03-19T03:05:24.980Z,5.91
2023-03-19T03:08:29.213Z,6.06
2023-03-19T03:11:32.448Z,6.30
2023-03-19T03:14:38.020Z,6.41
2023-03-19T03:17:42.280Z,6.48
2023-03-19T03:20:45.540Z,6.22
2023-03-19T03:23:49.183Z,6.39
2023-03-19T03:26:52.351Z,6.34
2023-03-19T03:29:58.198Z,6.54
2023-03-19T03:33:01.406Z,6.14
2023-03-19T03:36:04.917Z,6.06
2023-03-19T03:39:08.310Z,6.14
2023-03-19T03:42:12.081Z,5.96
2023-03-19T03:45:18.902Z,5.96
2023-03-19T03:48:22.724Z,5.95
2023-03-19T03:51:26.402Z,5.99
2023-03-19T03:54:29.500Z,6.12
2023-03-19T03:57:32.816Z,6.67
2023-03-19T04:00:37.743Z,5.98
2023-03-19T04:03:41.341Z,5.92
2023-03-19T04:06:44.735Z,6.04
2023-03-19T04:10:03.553Z,6.28
2023-03-19T04:13:06.747Z,6.23
2023-03-19T04:16:12.099Z,6.04
2023-03-19T04:19:15.557Z,5.88
2023-03-19T04:22:19.244Z,5.82
2023-03-19T04:25:22.457Z,5.83
2023-03-19T04:28:25.805Z,5.88
2023-03-19T04:34:15.683Z,6.14
2023-03-19T04:37:19.953Z,5.93
2023-03-19T04:40:26.518Z,5.82
2023-03-19T04:43:30.209Z,5.77
2023-03-19T04:46:34.407Z,5.71
2023-03-19T04:49:39.639Z,5.64
2023-03-19T04:52:43.080Z,5.65
2023-03-19T04:55:47.915Z,6.17
2023-03-19T04:58:53.700Z,5.95
2023-03-19T05:01:56.895Z,5.93
2023-03-19T05:05:02.349Z,5.94
2023-03-19T05:08:06.182Z,5.80
2023-03-19T05:11:10.180Z,6.00
2023-03-19T05:14:29.160Z,5.87
2023-03-19T05:17:52.623Z,5.93
2023-03-19T05:20:59.615Z,6.05
2023-03-19T05:24:04.507Z,6.30
2023-03-19T05:27:12.290Z,6.12
2023-03-19T05:30:39.270Z,5.98
2023-03-19T05:33:56.232Z,6.03
2023-03-19T05:37:01.106Z,6.14
2023-03-19T05:40:05.225Z,6.09
2023-03-19T05:43:09.241Z,5.86
2023-03-19T05:46:12.454Z,6.14
2023-03-19T05:49:16.474Z,6.01
2023-03-19T05:52:21.806Z,6.19
2023-03-19T05:55:26.109Z,6.03
2023-03-19T05:58:39.150Z,6.16
2023-03-19T06:01:42.601Z,6.11
2023-03-19T06:04:46.013Z,6.32
2023-03-19T06:07:50.657Z,6.27
2023-03-19T06:11:11.255Z,6.39
2023-03-19T06:14:15.210Z,6.47
2023-03-19T06:17:24.735Z,6.47
2023-03-19T06:20:28.330Z,6.44
2023-03-19T06:23:33.335Z,6.55
2023-03-19T06:26:38.931Z,6.43
2023-03-19T06:29:48.616Z,6.52
2023-03-19T06:33:00.695Z,6.58
2023-03-19T06:36:05.278Z,6.57
2023-03-19T06:39:11.134Z,6.63
2023-03-19T06:42:14.389Z,6.68
2023-03-19T06:45:19.264Z,7.13
2023-03-19T06:48:22.522Z,6.95
2023-03-19T06:51:27.945Z,6.91
2023-03-19T06:54:32.500Z,7.00
2023-03-19T06:57:35.967Z,7.06
2023-03-19T07:00:39.357Z,7.12
2023-03-19T07:03:42.612Z,7.19
2023-03-19T07:06:46.407Z,7.18
2023-03-19T07:09:51.458Z,7.36
2023-03-19T07:12:54.661Z,7.48
2023-03-19T07:15:57.781Z,7.46
2023-03-19T07:19:00.996Z,7.60
2023-03-19T07:22:04.159Z,7.53
2023-03-19T07:25:09.808Z,7.63
2023-03-19T07:28:13.011Z,7.69
2023-03-19T07:31:16.875Z,7.84
2023-03-19T07:34:20.035Z,7.96
2023-03-19T07:37:23.237Z,7.75
2023-03-19T07:40:28.025Z,7.77
2023-03-19T07:43:31.966Z,8.12
2023-03-19T07:46:35.153Z,8.20
2023-03-19T07:49:38.244Z,8.22
2023-03-19T07:52:41.635Z,8.27
2023-03-19T07:55:46.263Z,8.37
2023-03-19T07:58:49.401Z,8.45
2023-03-19T08:01:52.653Z,8.74
2023-03-19T08:04:56.015Z,8.46
2023-03-19T08:07:59.157Z,8.60
2023-03-19T08:11:04.286Z,8.57
2023-03-19T08:14:07.575Z,8.70
2023-03-19T08:17:10.762Z,8.70
2023-03-19T08:20:16.978Z,8.82
2023-03-19T08:23:20.821Z,8.76
2023-03-19T08:26:26.252Z,8.68
2023-03-19T08:29:29.428Z,8.74
2023-03-19T08:32:32.960Z,8.74
2023-03-19T08:35:36.336Z,8.65
2023-03-19T08:38:39.818Z,8.73
2023-03-19T08:41:44.447Z,8.72
2023-03-19T08:44:47.661Z,8.79
2023-03-19T08:47:51.572Z,8.75
2023-03-19T08:50:55.275Z,8.55
2023-03-19T08:53:59.346Z,8.70
2023-03-19T08:57:04.426Z,8.56
2023-03-19T09:00:09.026Z,8.54
2023-03-19T09:03:12.211Z,8.61
2023-03-19T09:06:16.031Z,8.67
2023-03-19T09:09:20.133Z,8.77
2023-03-19T09:12:24.647Z,8.97
2023-03-19T09:15:28.333Z,8.72
2023-03-19T09:18:32.479Z,8.90
2023-03-19T09:21:36.202Z,8.91
2023-03-19T09:24:40.663Z,8.80
2023-03-19T09:27:45.511Z,8.95
2023-03-19T09:30:49.540Z,9.05
2023-03-19T09:33:52.884Z,9.03
2023-03-19T09:36:56.178Z,8.90
2023-03-19T09:39:59.935Z,8.84
2023-03-19T09:43:21.831Z,9.15
2023-03-19T09:46:30.768Z,9.27
2023-03-19T09:49:40.296Z,8.90
2023-03-19T09:52:47.021Z,9.16
2023-03-19T09:55:54.179Z,9.11
2023-03-19T09:58:58.746Z,9.15
2023-03-19T10:02:22.356Z,9.06
2023-03-19T10:05:32.617Z,9.03
2023-03-19T10:08:50.185Z,9.06
2023-03-19T10:12:07.315Z,9.17
2023-03-19T10:15:22.045Z,9.28
2023-03-19T10:18:29.233Z,9.16
2023-03-19T10:21:36.268Z,9.06
2023-03-19T10:24:42.739Z,9.13
2023-03-19T10:27:47.748Z,9.19
2023-03-19T10:34:31.416Z,9.11
2023-03-19T10:37:35.834Z,8.93
2023-03-19T10:40:49.822Z,9.17
2023-03-19T10:43:55.824Z,9.02
2023-03-19T10:47:00.712Z,9.22
2023-03-19T10:50:06.120Z,9.23
2023-03-19T10:53:32.097Z,9.33
2023-03-19T10:56:36.005Z,9.36
2023-03-19T10:59:39.536Z,9.49
2023-03-19T11:02:48.711Z,9.46
2023-03-19T11:06:05.974Z,9.69
2023-03-19T11:09:20.228Z,9.63
2023-03-19T11:12:28.061Z,9.37
2023-03-19T11:15:36.981Z,9.64
2023-03-19T11:18:41.135Z,9.92
2023-03-19T11:22:00.103Z,9.90
2023-03-19T11:25:14.760Z,9.72
2023-03-19T11:28:21.552Z,9.76
2023-03-19T11:31:33.950Z,9.91
2023-03-19T11:34:46.346Z,9.90
2023-03-19T11:37:58.077Z,9.94
2023-03-19T11:41:11.790Z,9.84
2023-03-19T11:44:19.823Z,10.00
2023-03-19T11:47:30.438Z,10.26
2023-03-19T11:50:48.303Z,10.12
2023-03-19T11:54:05.439Z,10.32
2023-03-19T11:57:13.176Z,10.41
2023-03-19T12:00:28.743Z,10.38
2023-03-19T12:03:52.020Z,10.55
2023-03-19T12:07:06.628Z,10.97
2023-03-19T12:10:30.678Z,10.57
2023-03-19T12:13:45.611Z,11.15
2023-03-19T12:17:04.868Z,11.05
2023-03-19T12:20:23.389Z,11.37
2023-03-19T12:23:39.072Z,11.60
2023-03-19T12:26:59.969Z,11.30
2023-03-19T12:30:13.144Z,11.32
2023-03-19T12:33:34.631Z,11.29
2023-03-19T12:36:42.313Z,11.70
2023-03-19T12:39:54.638Z,11.85
2023-03-19T12:43:03.260Z,11.86
2023-03-19T12:46:12.693Z,12.21
2023-03-19T12:49:20.462Z,11.90
2023-03-19T12:52:28.022Z,12.16
2023-03-19T12:55:38.565Z,12.60
2023-03-19T12:58:54.296Z,12.09
2023-03-19T13:02:03.688Z,12.09
2023-03-19T13:05:22.835Z,11.87
2023-03-19T13:08:34.111Z,12.35
2023-03-19T13:11:47.727Z,12.20
2023-03-19T13:14:56.823Z,12.74
2023-03-19T13:18:12.629Z,12.64
2023-03-19T13:21:24.540Z,12.66
2023-03-19T13:24:29.892Z,12.29
2023-03-19T13:27:35.668Z,12.03
2023-03-19T13:30:42.399Z,12.16
2023-03-19T13:33:53.748Z,12.38
2023-03-19T13:37:02.934Z,12.78
2023-03-19T13:40:26.954Z,12.39
2023-03-19T13:43:54.745Z,12.15
2023-03-19T13:47:02.328Z,12.59
2023-03-19T13:50:23.527Z,12.79
2023-03-19T13:53:53.704Z,12.18
2023-03-19T13:57:07.852Z,12.32
2023-03-19T14:00:49.625Z,12.39
2023-03-19T14:03:58.506Z,12.44
2023-03-19T14:07:14.074Z,12.44
2023-03-19T14:10:22.792Z,12.59
2023-03-19T14:13:33.188Z,12.26
2023-03-19T14:16:39.243Z,12.55
2023-03-19T14:19:43.909Z,12.71
2023-03-19T14:22:58.295Z,12.60
2023-03-19T14:26:07.751Z,12.73
2023-03-19T14:29:15.668Z,12.95
2023-03-19T14:32:20.526Z,13.08
2023-03-19T14:35:27.083Z,12.96
2023-03-19T14:38:38.114Z,12.88
2023-03-19T14:41:47.151Z,13.08
2023-03-19T14:45:23.025Z,12.99
2023-03-19T14:49:13.145Z,13.05
2023-03-19T14:52:21.697Z,13.15
2023-03-19T14:55:34.628Z,12.98
2023-03-19T14:58:38.189Z,13.18
2023-03-19T15:01:45.498Z,12.99
2023-03-19T15:04:50.094Z,13.15
2023-03-19T15:07:57.360Z,12.98
2023-03-19T15:11:19.574Z,13.29
2023-03-19T15:14:49.977Z,13.26
2023-03-19T15:18:03.796Z,13.27
2023-03-19T15:21:10.779Z,13.14
2023-03-19T15:24:18.172Z,13.26
2023-03-19T15:27:23.643Z,13.13
2023-03-19T15:30:32.584Z,13.13
2023-03-19T15:33:41.440Z,13.17
2023-03-19T15:36:46.586Z,13.17
2023-03-19T15:39:55.130Z,13.25
2023-03-19T15:43:01.211Z,13.30
2023-03-19T15:46:04.776Z,13.29
2023-03-19T15:49:12.995Z,13.37
2023-03-19T15:52:20.683Z,13.17
2023-03-19T15:55:27.262Z,13.06
2023-03-19T15:58:32.979Z,13.17
2023-03-19T16:01:36.293Z,12.97
2023-03-19T16:05:06.660Z,12.95
2023-03-19T16:08:04.490Z,12.78
2023-03-19T16:11:31.512Z,13.00
2023-03-19T16:14:41.555Z,13.08
2023-03-19T16:17:44.688Z,13.12
2023-03-19T16:21:04.163Z,13.02
2023-03-19T16:24:15.834Z,12.90
2023-03-19T16:27:23.147Z,12.88
2023-03-19T16:34:35.741Z,12.77
2023-03-19T16:37:43.556Z,12.78
2023-03-19T16:40:47.786Z,12.58
2023-03-19T16:43:53.660Z,12.32
2023-03-19T16:46:57.113Z,12.34
2023-03-19T16:50:01.613Z,12.43
2023-03-19T16:53:07.224Z,12.41
2023-03-19T16:56:14.114Z,12.18
2023-03-19T16:59:22.339Z,12.11
2023-03-19T17:02:25.566Z,12.11
2023-03-19T17:05:31.160Z,12.00
2023-03-19T17:08:34.463Z,11.86
2023-03-19T17:11:40.780Z,11.83
2023-03-19T17:14:44.642Z,11.63
2023-03-19T17:17:48.050Z,11.59
2023-03-19T17:20:57.981Z,11.44
2023-03-19T17:24:17.550Z,11.32
2023-03-19T17:27:20.751Z,11.17
2023-03-19T17:30:23.856Z,11.28
2023-03-19T17:33:29.679Z,11.06
2023-03-19T17:36:34.767Z,11.01
2023-03-19T17:39:37.850Z,10.88
2023-03-19T17:42:43.479Z,10.78
2023-03-19T17:45:48.554Z,10.76
2023-03-19T17:48:52.438Z,10.71
2023-03-19T17:51:57.459Z,10.70
2023-03-19T17:55:00.903Z,10.94
2023-03-19T17:58:04.175Z,10.89
2023-03-19T18:01:13.892Z,10.66
2023-03-19T18:04:19.484Z,10.52
2023-03-19T18:07:24.430Z,10.85
2023-03-19T18:10:30.327Z,10.84
2023-03-19T18:13:33.519Z,10.90
2023-03-19T18:16:37.049Z,10.91
2023-03-19T18:19:40.351Z,10.89
2023-03-19T18:22:44.988Z,10.88
2023-03-19T18:25:48.371Z,10.87
2023-03-19T18:28:51.741Z,10.81
2023-03-19T18:31:55.048Z,10.75
2023-03-19T18:34:58.697Z,10.80
2023-03-19T18:38:03.549Z,10.79
2023-03-19T18:41:06.679Z,10.73
2023-03-19T18:44:12.116Z,10.78
2023-03-19T18:47:16.429Z,10.46
2023-03-19T18:50:21.952Z,10.58
2023-03-19T18:53:27.639Z,10.58
2023-03-19T18:56:34.424Z,10.47
2023-03-19T18:59:37.746Z,10.43
2023-03-19T19:02:40.921Z,10.27
2023-03-19T19:05:45.183Z,10.17
2023-03-19T19:08:50.537Z,10.21
2023-03-19T19:11:54.285Z,10.00
2023-03-19T19:14:58.661Z,9.80
2023-03-19T19:18:06.891Z,9.69
2023-03-19T19:21:11.319Z,9.45
2023-03-19T19:24:17.597Z,9.37
2023-03-19T19:27:24.092Z,9.33
2023-03-19T19:30:28.422Z,9.35
2023-03-19T19:33:34.795Z,9.38
2023-03-19T19:36:38.211Z,9.47
2023-03-19T19:39:42.716Z,9.16
2023-03-19T19:42:46.862Z,9.49
2023-03-19T19:45:52.614Z,9.35
2023-03-19T19:48:55.791Z,9.51
2023-03-19T19:51:59.033Z,9.45
2023-03-19T19:55:06.135Z,8.99
2023-03-19T19:58:18.201Z,8.89
2023-03-19T20:01:23.791Z,9.00
2023-03-19T20:04:29.892Z,8.94
2023-03-19T20:07:33.957Z,9.07
2023-03-19T20:10:39.252Z,8.84
2023-03-19T20:13:44.273Z,8.94
2023-03-19T20:16:48.716Z,8.78
2023-03-19T20:19:52.326Z,9.26
2023-03-19T20:22:56.568Z,8.84
2023-03-19T20:26:02.341Z,8.94
2023-03-19T20:29:05.682Z,8.76
2023-03-19T20:32:27.837Z,8.75
2023-03-19T20:35:33.021Z,8.79
2023-03-19T20:38:36.724Z,8.79
2023-03-19T20:41:41.403Z,8.72
2023-03-19T20:44:45.203Z,8.84
2023-03-19T20:47:50.334Z,8.79
2023-03-19T20:50:53.669Z,8.75
2023-03-19T20:53:57.143Z,8.68
2023-03-19T20:57:02.420Z,8.64
2023-03-19T21:00:18.035Z,8.63
2023-03-19T21:03:23.537Z,8.66
2023-03-19T21:06:26.707Z,8.48
2023-03-19T21:09:29.835Z,8.53
2023-03-19T21:12:36.054Z,8.49
2023-03-19T21:15:39.291Z,8.74
2023-03-19T21:18:42.602Z,8.62
2023-03-19T21:21:46.025Z,8.59
2023-03-19T21:24:49.831Z,8.52
2023-03-19T21:27:57.745Z,8.53
2023-03-19T21:31:01.249Z,8.54
2023-03-19T21:34:04.455Z,8.57
2023-03-19T21:37:08.170Z,8.54
2023-03-19T21:40:14.914Z,8.40
2023-03-19T21:43:22.848Z,8.49
2023-03-19T21:46:29.960Z,8.08
2023-03-19T21:49:34.339Z,8.40
2023-03-19T21:52:53.689Z,8.24
2023-03-19T21:56:01.422Z,8.29
2023-03-19T21:59:14.798Z,8.40
2023-03-19T22:02:39.581Z,7.62
2023-03-19T22:05:43.320Z,8.08
2023-03-19T22:08:48.263Z,8.04
2023-03-19T22:11:51.498Z,7.93
2023-03-19T22:14:56.239Z,8.09
2023-03-19T22:17:59.859Z,7.78
2023-03-19T22:21:03.066Z,7.64
2023-03-19T22:24:06.842Z,7.62
2023-03-19T22:27:16.095Z,7.58
2023-03-19T22:34:17.328Z,7.48
2023-03-19T22:37:25.963Z,7.50
2023-03-19T22:40:29.142Z,7.72
2023-03-19T22:43:36.182Z,7.32
2023-03-19T22:46:39.468Z,7.30
2023-03-19T22:49:44.950Z,7.42
2023-03-19T22:52:48.721Z,7.31
2023-03-19T22:55:52.027Z,7.37
2023-03-19T22:58:56.767Z,7.26
2023-03-19T23:02:01.466Z,7.26
2023-03-19T23:05:24.214Z,7.63
2023-03-19T23:08:27.688Z,7.75
2023-03-19T23:11:31.641Z,7.34
2023-03-19T23:14:34.754Z,7.50
2023-03-19T23:17:38.221Z,7.42
2023-03-19T23:20:42.861Z,7.44
2023-03-19T23:23:46.546Z,7.47
2023-03-19T23:26:52.053Z,7.45
2023-03-19T23:29:55.919Z,7.41
2023-03-19T23:33:00.964Z,7.64
2023-03-19T23:36:06.227Z,7.43
2023-03-19T23:39:10.330Z,7.37
2023-03-19T23:42:26.095Z,7.29
2023-03-19T23:45:36.570Z,7.31
2023-03-19T23:48:40.186Z,7.28
2023-03-19T23:51:46.905Z,7.22
2023-03-19T23:54:50.033Z,7.24
2023-03-19T23:57:53.374Z,7.21
